sensor_id;sensor_type;location;lat;lon;timestamp;P1;durP1;ratioP1;P2;durP2;ratioP2
37955;SDS011;23776;51.592;7.180;2022-12-05T00:00:57;74.45;;;26.45;;
37955;SDS011;23776;51.592;7.180;2022-12-05T00:03:24;66.55;;;24.88;;
37955;SDS011;23776;51.592;7.180;2022-12-05T00:05:50;68.90;;;26.05;;
37955;SDS011;23776;51.592;7.180;2022-12-05T00:08:15;64.68;;;26.13;;
37955;SDS011;23776;51.592;7.180;2022-12-05T00:10:42;64.53;;;25.00;;
37955;SDS011;23776;51.592;7.180;2022-12-05T00:13:08;65.93;;;26.35;;
37955;SDS011;23776;51.592;7.180;2022-12-05T00:15:37;63.78;;;24.92;;
37955;SDS011;23776;51.592;7.180;2022-12-05T00:18:04;64.18;;;26.48;;
37955;SDS011;23776;51.592;7.180;2022-12-05T00:20:30;62.97;;;25.88;;
37955;SDS011;23776;51.592;7.180;2022-12-05T00:22:55;58.60;;;23.52;;
37955;SDS011;23776;51.592;7.180;2022-12-05T00:25:21;62.88;;;25.05;;
37955;SDS011;23776;51.592;7.180;2022-12-05T00:27:46;65.30;;;26.55;;
37955;SDS011;23776;51.592;7.180;2022-12-05T00:30:12;64.05;;;25.92;;
37955;SDS011;23776;51.592;7.180;2022-12-05T00:32:38;69.32;;;26.20;;
37955;SDS011;23776;51.592;7.180;2022-12-05T00:35:03;65.03;;;26.42;;
37955;SDS011;23776;51.592;7.180;2022-12-05T00:37:29;68.43;;;27.10;;
37955;SDS011;23776;51.592;7.180;2022-12-05T00:39:55;61.00;;;26.60;;
37955;SDS011;23776;51.592;7.180;2022-12-05T00:42:20;62.17;;;27.15;;
37955;SDS011;23776;51.592;7.180;2022-12-05T00:44:47;65.43;;;25.13;;
37955;SDS011;23776;51.592;7.180;2022-12-05T00:47:13;72.40;;;27.27;;
37955;SDS011;23776;51.592;7.180;2022-12-05T00:49:39;69.47;;;27.83;;
37955;SDS011;23776;51.592;7.180;2022-12-05T00:52:04;65.10;;;27.42;;
37955;SDS011;23776;51.592;7.180;2022-12-05T00:54:30;68.60;;;28.60;;
37955;SDS011;23776;51.592;7.180;2022-12-05T00:56:56;63.65;;;24.67;;
37955;SDS011;23776;51.592;7.180;2022-12-05T00:59:21;70.20;;;26.98;;
37955;SDS011;23776;51.592;7.180;2022-12-05T01:01:48;69.55;;;26.58;;
37955;SDS011;23776;51.592;7.180;2022-12-05T01:04:15;67.70;;;26.65;;
37955;SDS011;23776;51.592;7.180;2022-12-05T01:06:43;70.10;;;26.33;;
37955;SDS011;23776;51.592;7.180;2022-12-05T01:09:13;66.47;;;26.05;;
37955;SDS011;23776;51.592;7.180;2022-12-05T01:11:40;69.30;;;26.08;;
37955;SDS011;23776;51.592;7.180;2022-12-05T01:14:08;73.72;;;27.42;;
37955;SDS011;23776;51.592;7.180;2022-12-05T01:16:35;67.15;;;28.00;;
37955;SDS011;23776;51.592;7.180;2022-12-05T01:19:03;68.07;;;27.27;;
37955;SDS011;23776;51.592;7.180;2022-12-05T01:21:31;69.93;;;28.08;;
37955;SDS011;23776;51.592;7.180;2022-12-05T01:23:57;73.22;;;28.98;;
37955;SDS011;23776;51.592;7.180;2022-12-05T01:26:23;64.97;;;25.77;;
37955;SDS011;23776;51.592;7.180;2022-12-05T01:28:49;76.38;;;27.08;;
37955;SDS011;23776;51.592;7.180;2022-12-05T01:31:17;75.97;;;29.23;;
37955;SDS011;23776;51.592;7.180;2022-12-05T01:33:47;72.50;;;27.70;;
37955;SDS011;23776;51.592;7.180;2022-12-05T01:36:13;72.82;;;27.13;;
37955;SDS011;23776;51.592;7.180;2022-12-05T01:38:39;72.47;;;27.05;;
37955;SDS011;23776;51.592;7.180;2022-12-05T01:41:07;69.60;;;27.05;;
37955;SDS011;23776;51.592;7.180;2022-12-05T01:43:51;68.03;;;26.80;;
37955;SDS011;23776;51.592;7.180;2022-12-05T01:46:17;69.27;;;25.97;;
37955;SDS011;23776;51.592;7.180;2022-12-05T01:48:43;75.20;;;28.30;;
37955;SDS011;23776;51.592;7.180;2022-12-05T01:51:09;73.55;;;26.75;;
37955;SDS011;23776;51.592;7.180;2022-12-05T01:53:34;72.90;;;27.83;;
37955;SDS011;23776;51.592;7.180;2022-12-05T01:56:00;69.32;;;27.13;;
37955;SDS011;23776;51.592;7.180;2022-12-05T01:58:27;85.68;;;27.98;;
37955;SDS011;23776;51.592;7.180;2022-12-05T02:00:57;78.80;;;30.30;;
37955;SDS011;23776;51.592;7.180;2022-12-05T02:03:22;75.10;;;28.67;;
37955;SDS011;23776;51.592;7.180;2022-12-05T02:05:50;79.82;;;28.15;;
37955;SDS011;23776;51.592;7.180;2022-12-05T02:08:17;72.65;;;27.85;;
37955;SDS011;23776;51.592;7.180;2022-12-05T02:10:50;82.07;;;28.23;;
37955;SDS011;23776;51.592;7.180;2022-12-05T02:13:27;81.65;;;28.10;;
37955;SDS011;23776;51.592;7.180;2022-12-05T02:16:12;76.50;;;27.92;;
37955;SDS011;23776;51.592;7.180;2022-12-05T02:19:18;73.45;;;26.33;;
37955;SDS011;23776;51.592;7.180;2022-12-05T02:22:01;79.40;;;28.02;;
37955;SDS011;23776;51.592;7.180;2022-12-05T02:28:25;73.50;;;27.92;;
37955;SDS011;23776;51.592;7.180;2022-12-05T02:30:57;76.13;;;27.15;;
37955;SDS011;23776;51.592;7.180;2022-12-05T02:36:33;71.55;;;25.83;;
37955;SDS011;23776;51.592;7.180;2022-12-05T02:42:09;73.25;;;26.88;;
37955;SDS011;23776;51.592;7.180;2022-12-05T02:47:14;65.00;;;26.58;;
37955;SDS011;23776;51.592;7.180;2022-12-05T02:49:43;75.78;;;25.98;;
37955;SDS011;23776;51.592;7.180;2022-12-05T02:52:09;77.15;;;27.23;;
37955;SDS011;23776;51.592;7.180;2022-12-05T02:54:38;80.88;;;27.15;;
37955;SDS011;23776;51.592;7.180;2022-12-05T02:57:08;64.13;;;25.70;;
37955;SDS011;23776;51.592;7.180;2022-12-05T02:59:35;76.10;;;27.52;;
37955;SDS011;23776;51.592;7.180;2022-12-05T03:02:01;74.20;;;26.98;;
37955;SDS011;23776;51.592;7.180;2022-12-05T03:04:27;73.47;;;26.38;;
37955;SDS011;23776;51.592;7.180;2022-12-05T03:07:08;71.18;;;26.38;;
37955;SDS011;23776;51.592;7.180;2022-12-05T03:09:36;75.80;;;27.15;;
37955;SDS011;23776;51.592;7.180;2022-12-05T03:12:12;71.00;;;26.67;;
37955;SDS011;23776;51.592;7.180;2022-12-05T03:14:52;74.15;;;28.63;;
37955;SDS011;23776;51.592;7.180;2022-12-05T03:17:22;66.60;;;26.35;;
37955;SDS011;23776;51.592;7.180;2022-12-05T03:19:55;65.30;;;26.20;;
37955;SDS011;23776;51.592;7.180;2022-12-05T03:25:49;73.50;;;25.33;;
37955;SDS011;23776;51.592;7.180;2022-12-05T03:28:28;74.35;;;26.35;;
37955;SDS011;23776;51.592;7.180;2022-12-05T03:31:18;80.13;;;28.25;;
37955;SDS011;23776;51.592;7.180;2022-12-05T03:33:52;70.68;;;25.55;;
37955;SDS011;23776;51.592;7.180;2022-12-05T03:36:24;63.38;;;27.23;;
37955;SDS011;23776;51.592;7.180;2022-12-05T03:39:00;74.38;;;27.42;;
37955;SDS011;23776;51.592;7.180;2022-12-05T03:44:12;68.32;;;26.58;;
37955;SDS011;23776;51.592;7.180;2022-12-05T03:46:47;69.63;;;25.92;;
37955;SDS011;23776;51.592;7.180;2022-12-05T03:52:02;68.70;;;26.63;;
37955;SDS011;23776;51.592;7.180;2022-12-05T03:54:55;77.65;;;25.90;;
37955;SDS011;23776;51.592;7.180;2022-12-05T03:57:26;72.97;;;27.00;;
37955;SDS011;23776;51.592;7.180;2022-12-05T04:02:36;69.85;;;26.38;;
37955;SDS011;23776;51.592;7.180;2022-12-05T04:05:11;73.50;;;25.83;;
37955;SDS011;23776;51.592;7.180;2022-12-05T04:07:45;78.97;;;27.23;;
37955;SDS011;23776;51.592;7.180;2022-12-05T04:10:19;65.03;;;27.50;;
37955;SDS011;23776;51.592;7.180;2022-12-05T04:12:50;65.05;;;23.92;;
37955;SDS011;23776;51.592;7.180;2022-12-05T04:15:22;60.10;;;24.70;;
37955;SDS011;23776;51.592;7.180;2022-12-05T04:17:55;62.80;;;25.67;;
37955;SDS011;23776;51.592;7.180;2022-12-05T04:20:25;65.72;;;24.75;;
37955;SDS011;23776;51.592;7.180;2022-12-05T04:23:20;61.40;;;23.13;;
37955;SDS011;23776;51.592;7.180;2022-12-05T04:28:50;72.95;;;26.77;;
37955;SDS011;23776;51.592;7.180;2022-12-05T04:31:28;68.93;;;25.02;;
37955;SDS011;23776;51.592;7.180;2022-12-05T04:34:01;69.50;;;25.20;;
37955;SDS011;23776;51.592;7.180;2022-12-05T04:36:32;61.30;;;23.98;;
37955;SDS011;23776;51.592;7.180;2022-12-05T04:39:05;66.63;;;25.42;;
37955;SDS011;23776;51.592;7.180;2022-12-05T04:41:41;68.07;;;24.73;;
37955;SDS011;23776;51.592;7.180;2022-12-05T04:44:28;62.88;;;24.33;;
37955;SDS011;23776;51.592;7.180;2022-12-05T04:46:58;62.08;;;23.15;;
37955;SDS011;23776;51.592;7.180;2022-12-05T04:49:28;65.80;;;25.02;;
37955;SDS011;23776;51.592;7.180;2022-12-05T04:51:57;59.72;;;25.38;;
37955;SDS011;23776;51.592;7.180;2022-12-05T04:54:27;68.85;;;25.45;;
37955;SDS011;23776;51.592;7.180;2022-12-05T04:57:20;68.55;;;26.15;;
37955;SDS011;23776;51.592;7.180;2022-12-05T04:59:49;67.85;;;24.67;;
37955;SDS011;23776;51.592;7.180;2022-12-05T05:02:17;72.90;;;25.95;;
37955;SDS011;23776;51.592;7.180;2022-12-05T05:04:48;69.90;;;25.35;;
37955;SDS011;23776;51.592;7.180;2022-12-05T05:07:17;64.68;;;24.58;;
37955;SDS011;23776;51.592;7.180;2022-12-05T05:09:43;62.20;;;24.27;;
37955;SDS011;23776;51.592;7.180;2022-12-05T05:12:10;65.72;;;23.50;;
37955;SDS011;23776;51.592;7.180;2022-12-05T05:14:36;62.72;;;22.80;;
37955;SDS011;23776;51.592;7.180;2022-12-05T05:17:01;57.90;;;22.90;;
37955;SDS011;23776;51.592;7.180;2022-12-05T05:19:27;70.18;;;25.05;;
37955;SDS011;23776;51.592;7.180;2022-12-05T05:21:53;57.25;;;24.35;;
37955;SDS011;23776;51.592;7.180;2022-12-05T05:24:19;66.75;;;25.02;;
37955;SDS011;23776;51.592;7.180;2022-12-05T05:26:47;64.88;;;25.33;;
37955;SDS011;23776;51.592;7.180;2022-12-05T05:29:13;58.42;;;23.95;;
37955;SDS011;23776;51.592;7.180;2022-12-05T05:31:40;58.53;;;24.35;;
37955;SDS011;23776;51.592;7.180;2022-12-05T05:34:07;56.60;;;22.48;;
37955;SDS011;23776;51.592;7.180;2022-12-05T05:36:33;58.08;;;23.38;;
37955;SDS011;23776;51.592;7.180;2022-12-05T05:39:00;51.42;;;21.75;;
37955;SDS011;23776;51.592;7.180;2022-12-05T05:41:30;55.75;;;22.65;;
37955;SDS011;23776;51.592;7.180;2022-12-05T05:43:57;54.03;;;22.92;;
37955;SDS011;23776;51.592;7.180;2022-12-05T05:46:24;51.45;;;21.45;;
37955;SDS011;23776;51.592;7.180;2022-12-05T05:48:51;53.03;;;21.52;;
37955;SDS011;23776;51.592;7.180;2022-12-05T05:51:18;56.42;;;22.00;;
37955;SDS011;23776;51.592;7.180;2022-12-05T05:53:44;52.25;;;21.77;;
37955;SDS011;23776;51.592;7.180;2022-12-05T05:56:11;56.47;;;19.73;;
37955;SDS011;23776;51.592;7.180;2022-12-05T05:58:38;48.22;;;20.55;;
37955;SDS011;23776;51.592;7.180;2022-12-05T06:01:05;51.10;;;21.60;;
37955;SDS011;23776;51.592;7.180;2022-12-05T06:03:33;50.58;;;20.48;;
37955;SDS011;23776;51.592;7.180;2022-12-05T06:05:59;49.42;;;20.23;;
37955;SDS011;23776;51.592;7.180;2022-12-05T06:08:31;50.10;;;21.35;;
37955;SDS011;23776;51.592;7.180;2022-12-05T06:10:57;47.95;;;20.15;;
37955;SDS011;23776;51.592;7.180;2022-12-05T06:13:23;51.30;;;20.48;;
37955;SDS011;23776;51.592;7.180;2022-12-05T06:15:49;48.00;;;20.92;;
37955;SDS011;23776;51.592;7.180;2022-12-05T06:18:15;50.85;;;20.98;;
37955;SDS011;23776;51.592;7.180;2022-12-05T06:20:40;50.60;;;19.98;;
37955;SDS011;23776;51.592;7.180;2022-12-05T06:23:06;42.85;;;18.25;;
37955;SDS011;23776;51.592;7.180;2022-12-05T06:25:32;47.13;;;19.25;;
37955;SDS011;23776;51.592;7.180;2022-12-05T06:27:58;49.95;;;20.48;;
37955;SDS011;23776;51.592;7.180;2022-12-05T06:30:23;48.92;;;19.65;;
37955;SDS011;23776;51.592;7.180;2022-12-05T06:32:49;41.30;;;19.95;;
37955;SDS011;23776;51.592;7.180;2022-12-05T06:35:14;48.72;;;19.58;;
37955;SDS011;23776;51.592;7.180;2022-12-05T06:37:43;39.50;;;18.35;;
37955;SDS011;23776;51.592;7.180;2022-12-05T06:40:10;45.38;;;18.35;;
37955;SDS011;23776;51.592;7.180;2022-12-05T06:42:37;42.28;;;19.52;;
37955;SDS011;23776;51.592;7.180;2022-12-05T06:45:03;49.55;;;18.88;;
37955;SDS011;23776;51.592;7.180;2022-12-05T06:47:29;46.95;;;19.50;;
37955;SDS011;23776;51.592;7.180;2022-12-05T06:49:55;54.03;;;20.40;;
37955;SDS011;23776;51.592;7.180;2022-12-05T06:52:21;44.33;;;17.98;;
37955;SDS011;23776;51.592;7.180;2022-12-05T06:54:47;50.08;;;18.85;;
37955;SDS011;23776;51.592;7.180;2022-12-05T06:57:13;39.67;;;18.75;;
37955;SDS011;23776;51.592;7.180;2022-12-05T06:59:38;45.58;;;19.05;;
37955;SDS011;23776;51.592;7.180;2022-12-05T07:02:05;43.40;;;19.33;;
37955;SDS011;23776;51.592;7.180;2022-12-05T07:04:33;49.08;;;19.90;;
37955;SDS011;23776;51.592;7.180;2022-12-05T07:06:59;45.25;;;18.50;;
37955;SDS011;23776;51.592;7.180;2022-12-05T07:09:28;45.78;;;18.73;;
37955;SDS011;23776;51.592;7.180;2022-12-05T07:12:14;47.25;;;18.58;;
37955;SDS011;23776;51.592;7.180;2022-12-05T07:14:41;42.30;;;17.45;;
37955;SDS011;23776;51.592;7.180;2022-12-05T07:17:07;44.33;;;18.92;;
37955;SDS011;23776;51.592;7.180;2022-12-05T07:19:33;39.63;;;18.40;;
37955;SDS011;23776;51.592;7.180;2022-12-05T07:21:59;45.10;;;18.15;;
37955;SDS011;23776;51.592;7.180;2022-12-05T07:24:25;42.58;;;18.08;;
37955;SDS011;23776;51.592;7.180;2022-12-05T07:26:50;51.03;;;19.08;;
37955;SDS011;23776;51.592;7.180;2022-12-05T07:29:16;44.42;;;17.63;;
37955;SDS011;23776;51.592;7.180;2022-12-05T07:31:41;44.85;;;19.20;;
37955;SDS011;23776;51.592;7.180;2022-12-05T07:34:07;42.67;;;17.25;;
37955;SDS011;23776;51.592;7.180;2022-12-05T07:36:33;38.80;;;17.27;;
37955;SDS011;23776;51.592;7.180;2022-12-05T07:38:58;41.70;;;17.42;;
37955;SDS011;23776;51.592;7.180;2022-12-05T07:41:28;42.17;;;17.10;;
37955;SDS011;23776;51.592;7.180;2022-12-05T07:43:55;38.95;;;16.92;;
37955;SDS011;23776;51.592;7.180;2022-12-05T07:46:22;43.65;;;17.45;;
37955;SDS011;23776;51.592;7.180;2022-12-05T07:48:49;39.58;;;17.20;;
37955;SDS011;23776;51.592;7.180;2022-12-05T07:51:15;37.63;;;16.35;;
37955;SDS011;23776;51.592;7.180;2022-12-05T07:53:41;36.25;;;17.00;;
37955;SDS011;23776;51.592;7.180;2022-12-05T07:56:08;41.10;;;17.88;;
37955;SDS011;23776;51.592;7.180;2022-12-05T07:58:35;36.70;;;15.95;;
37955;SDS011;23776;51.592;7.180;2022-12-05T08:01:05;40.38;;;15.10;;
37955;SDS011;23776;51.592;7.180;2022-12-05T08:03:34;46.75;;;18.23;;
37955;SDS011;23776;51.592;7.180;2022-12-05T08:06:04;38.03;;;15.93;;
37955;SDS011;23776;51.592;7.180;2022-12-05T08:08:35;41.42;;;17.45;;
37955;SDS011;23776;51.592;7.180;2022-12-05T08:11:02;39.20;;;16.30;;
37955;SDS011;23776;51.592;7.180;2022-12-05T08:13:29;37.95;;;16.17;;
37955;SDS011;23776;51.592;7.180;2022-12-05T08:15:58;35.35;;;16.23;;
37955;SDS011;23776;51.592;7.180;2022-12-05T08:18:28;32.58;;;14.90;;
37955;SDS011;23776;51.592;7.180;2022-12-05T08:20:55;34.22;;;15.35;;
37955;SDS011;23776;51.592;7.180;2022-12-05T08:23:26;37.97;;;15.10;;
37955;SDS011;23776;51.592;7.180;2022-12-05T08:25:53;37.22;;;16.15;;
37955;SDS011;23776;51.592;7.180;2022-12-05T08:28:18;33.35;;;15.40;;
37955;SDS011;23776;51.592;7.180;2022-12-05T08:30:44;31.85;;;15.63;;
37955;SDS011;23776;51.592;7.180;2022-12-05T08:33:09;32.90;;;14.38;;
37955;SDS011;23776;51.592;7.180;2022-12-05T08:35:37;33.72;;;14.50;;
37955;SDS011;23776;51.592;7.180;2022-12-05T08:38:03;31.85;;;14.57;;
37955;SDS011;23776;51.592;7.180;2022-12-05T08:40:29;63.17;;;31.50;;
37955;SDS011;23776;51.592;7.180;2022-12-05T08:42:55;30.55;;;13.35;;
37955;SDS011;23776;51.592;7.180;2022-12-05T08:45:21;31.55;;;15.30;;
37955;SDS011;23776;51.592;7.180;2022-12-05T08:47:47;32.75;;;14.32;;
37955;SDS011;23776;51.592;7.180;2022-12-05T08:50:13;27.92;;;13.85;;
37955;SDS011;23776;51.592;7.180;2022-12-05T08:52:38;29.08;;;13.57;;
37955;SDS011;23776;51.592;7.180;2022-12-05T08:55:04;30.90;;;15.02;;
37955;SDS011;23776;51.592;7.180;2022-12-05T08:57:30;31.95;;;14.93;;
37955;SDS011;23776;51.592;7.180;2022-12-05T08:59:55;32.33;;;13.85;;
37955;SDS011;23776;51.592;7.180;2022-12-05T09:02:21;33.85;;;14.20;;
37955;SDS011;23776;51.592;7.180;2022-12-05T09:04:51;31.05;;;14.18;;
37955;SDS011;23776;51.592;7.180;2022-12-05T09:07:16;28.27;;;13.55;;
37955;SDS011;23776;51.592;7.180;2022-12-05T09:09:42;29.90;;;13.75;;
37955;SDS011;23776;51.592;7.180;2022-12-05T09:12:08;33.05;;;14.02;;
37955;SDS011;23776;51.592;7.180;2022-12-05T09:14:33;32.42;;;14.55;;
37955;SDS011;23776;51.592;7.180;2022-12-05T09:16:59;29.58;;;14.43;;
37955;SDS011;23776;51.592;7.180;2022-12-05T09:19:25;32.42;;;15.57;;
37955;SDS011;23776;51.592;7.180;2022-12-05T09:21:52;29.58;;;14.60;;
37955;SDS011;23776;51.592;7.180;2022-12-05T09:24:19;30.55;;;14.27;;
37955;SDS011;23776;51.592;7.180;2022-12-05T09:26:44;33.10;;;15.93;;
37955;SDS011;23776;51.592;7.180;2022-12-05T09:29:11;30.35;;;14.60;;
37955;SDS011;23776;51.592;7.180;2022-12-05T09:31:37;28.55;;;14.30;;
37955;SDS011;23776;51.592;7.180;2022-12-05T09:34:03;29.33;;;14.15;;
37955;SDS011;23776;51.592;7.180;2022-12-05T09:36:29;29.67;;;14.77;;
37955;SDS011;23776;51.592;7.180;2022-12-05T09:39:00;33.70;;;14.52;;
37955;SDS011;23776;51.592;7.180;2022-12-05T09:44:48;28.33;;;13.85;;
37955;SDS011;23776;51.592;7.180;2022-12-05T09:47:35;28.10;;;13.45;;
37955;SDS011;23776;51.592;7.180;2022-12-05T09:50:29;30.23;;;14.27;;
37955;SDS011;23776;51.592;7.180;2022-12-05T09:55:35;31.52;;;16.35;;
37955;SDS011;23776;51.592;7.180;2022-12-05T09:58:11;32.10;;;17.07;;
37955;SDS011;23776;51.592;7.180;2022-12-05T10:00:50;30.83;;;15.85;;
37955;SDS011;23776;51.592;7.180;2022-12-05T10:06:02;29.30;;;14.35;;
37955;SDS011;23776;51.592;7.180;2022-12-05T10:08:41;34.33;;;15.02;;
37955;SDS011;23776;51.592;7.180;2022-12-05T10:11:13;34.42;;;14.95;;
37955;SDS011;23776;51.592;7.180;2022-12-05T10:13:52;30.40;;;14.32;;
37955;SDS011;23776;51.592;7.180;2022-12-05T10:19:02;27.75;;;14.02;;
37955;SDS011;23776;51.592;7.180;2022-12-05T10:21:44;37.88;;;17.08;;
37955;SDS011;23776;51.592;7.180;2022-12-05T10:24:28;32.85;;;15.82;;
37955;SDS011;23776;51.592;7.180;2022-12-05T10:27:03;36.10;;;19.08;;
37955;SDS011;23776;51.592;7.180;2022-12-05T10:29:32;34.33;;;16.70;;
37955;SDS011;23776;51.592;7.180;2022-12-05T10:34:40;27.17;;;14.77;;
37955;SDS011;23776;51.592;7.180;2022-12-05T10:39:46;29.45;;;15.35;;
37955;SDS011;23776;51.592;7.180;2022-12-05T10:42:17;31.25;;;14.23;;
37955;SDS011;23776;51.592;7.180;2022-12-05T10:44:55;34.30;;;16.30;;
37955;SDS011;23776;51.592;7.180;2022-12-05T10:47:32;41.10;;;16.35;;
37955;SDS011;23776;51.592;7.180;2022-12-05T10:50:01;31.98;;;15.07;;
37955;SDS011;23776;51.592;7.180;2022-12-05T10:52:31;32.53;;;15.25;;
37955;SDS011;23776;51.592;7.180;2022-12-05T10:54:59;32.15;;;16.13;;
37955;SDS011;23776;51.592;7.180;2022-12-05T10:57:28;39.47;;;16.38;;
37955;SDS011;23776;51.592;7.180;2022-12-05T10:59:55;36.08;;;15.30;;
37955;SDS011;23776;51.592;7.180;2022-12-05T11:02:27;31.50;;;15.48;;
37955;SDS011;23776;51.592;7.180;2022-12-05T11:04:55;30.30;;;14.88;;
37955;SDS011;23776;51.592;7.180;2022-12-05T11:07:29;32.13;;;15.10;;
37955;SDS011;23776;51.592;7.180;2022-12-05T11:09:57;32.13;;;15.00;;
37955;SDS011;23776;51.592;7.180;2022-12-05T11:12:39;33.30;;;16.10;;
37955;SDS011;23776;51.592;7.180;2022-12-05T11:15:17;33.67;;;15.65;;
37955;SDS011;23776;51.592;7.180;2022-12-05T11:17:47;29.63;;;15.07;;
37955;SDS011;23776;51.592;7.180;2022-12-05T11:22:42;25.27;;;13.02;;
37955;SDS011;23776;51.592;7.180;2022-12-05T11:27:57;32.60;;;14.65;;
37955;SDS011;23776;51.592;7.180;2022-12-05T11:30:26;34.60;;;15.75;;
37955;SDS011;23776;51.592;7.180;2022-12-05T11:35:45;35.10;;;17.20;;
37955;SDS011;23776;51.592;7.180;2022-12-05T11:38:12;35.20;;;16.05;;
37955;SDS011;23776;51.592;7.180;2022-12-05T11:51:32;34.15;;;16.23;;
37955;SDS011;23776;51.592;7.180;2022-12-05T11:54:31;37.10;;;17.73;;
37955;SDS011;23776;51.592;7.180;2022-12-05T12:02:45;37.65;;;19.75;;
37955;SDS011;23776;51.592;7.180;2022-12-05T12:05:33;43.28;;;19.33;;
37955;SDS011;23776;51.592;7.180;2022-12-05T12:08:28;42.13;;;19.20;;
37955;SDS011;23776;51.592;7.180;2022-12-05T12:16:33;33.20;;;16.83;;
37955;SDS011;23776;51.592;7.180;2022-12-05T12:22:05;33.67;;;16.67;;
37955;SDS011;23776;51.592;7.180;2022-12-05T12:36:02;42.17;;;19.50;;
37955;SDS011;23776;51.592;7.180;2022-12-05T12:52:03;40.22;;;19.35;;
37955;SDS011;23776;51.592;7.180;2022-12-05T12:54:52;36.40;;;18.67;;
37955;SDS011;23776;51.592;7.180;2022-12-05T12:57:41;41.55;;;20.20;;
37955;SDS011;23776;51.592;7.180;2022-12-05T13:00:26;38.15;;;18.08;;
37955;SDS011;23776;51.592;7.180;2022-12-05T13:03:11;34.70;;;16.75;;
37955;SDS011;23776;51.592;7.180;2022-12-05T13:05:52;37.13;;;17.90;;
37955;SDS011;23776;51.592;7.180;2022-12-05T13:08:26;35.33;;;17.60;;
37955;SDS011;23776;51.592;7.180;2022-12-05T13:11:10;39.60;;;16.92;;
37955;SDS011;23776;51.592;7.180;2022-12-05T13:13:39;39.17;;;17.42;;
37955;SDS011;23776;51.592;7.180;2022-12-05T13:16:10;39.80;;;19.25;;
37955;SDS011;23776;51.592;7.180;2022-12-05T13:18:42;37.15;;;17.95;;
37955;SDS011;23776;51.592;7.180;2022-12-05T13:21:08;35.30;;;18.15;;
37955;SDS011;23776;51.592;7.180;2022-12-05T13:23:45;38.50;;;18.55;;
37955;SDS011;23776;51.592;7.180;2022-12-05T13:26:13;37.53;;;17.77;;
37955;SDS011;23776;51.592;7.180;2022-12-05T13:28:46;34.25;;;17.67;;
37955;SDS011;23776;51.592;7.180;2022-12-05T13:31:13;37.92;;;18.25;;
37955;SDS011;23776;51.592;7.180;2022-12-05T13:33:42;39.17;;;18.55;;
37955;SDS011;23776;51.592;7.180;2022-12-05T13:36:17;35.75;;;17.75;;
37955;SDS011;23776;51.592;7.180;2022-12-05T13:41:56;38.35;;;18.00;;
37955;SDS011;23776;51.592;7.180;2022-12-05T13:44:42;42.33;;;19.40;;
37955;SDS011;23776;51.592;7.180;2022-12-05T13:50:18;42.22;;;19.05;;
37955;SDS011;23776;51.592;7.180;2022-12-05T13:52:53;38.83;;;18.85;;
37955;SDS011;23776;51.592;7.180;2022-12-05T13:57:54;36.53;;;17.02;;
37955;SDS011;23776;51.592;7.180;2022-12-05T14:00:25;36.72;;;17.05;;
37955;SDS011;23776;51.592;7.180;2022-12-05T14:02:59;32.05;;;15.77;;
37955;SDS011;23776;51.592;7.180;2022-12-05T14:05:39;34.20;;;15.88;;
37955;SDS011;23776;51.592;7.180;2022-12-05T14:18:48;34.85;;;16.73;;
37955;SDS011;23776;51.592;7.180;2022-12-05T14:21:35;35.08;;;17.75;;
37955;SDS011;23776;51.592;7.180;2022-12-05T14:24:27;35.80;;;16.50;;
37955;SDS011;23776;51.592;7.180;2022-12-05T14:27:17;36.70;;;16.60;;
37955;SDS011;23776;51.592;7.180;2022-12-05T14:30:02;31.30;;;17.38;;
37955;SDS011;23776;51.592;7.180;2022-12-05T14:32:31;36.38;;;17.67;;
37955;SDS011;23776;51.592;7.180;2022-12-05T14:37:40;38.08;;;18.90;;
37955;SDS011;23776;51.592;7.180;2022-12-05T14:42:55;37.38;;;17.77;;
37955;SDS011;23776;51.592;7.180;2022-12-05T14:50:50;32.65;;;17.95;;
37955;SDS011;23776;51.592;7.180;2022-12-05T15:01:13;38.45;;;19.02;;
37955;SDS011;23776;51.592;7.180;2022-12-05T15:06:41;35.90;;;17.40;;
37955;SDS011;23776;51.592;7.180;2022-12-05T15:09:28;34.10;;;17.60;;
37955;SDS011;23776;51.592;7.180;2022-12-05T15:12:01;33.60;;;17.10;;
37955;SDS011;23776;51.592;7.180;2022-12-05T15:14:31;37.95;;;18.45;;
37955;SDS011;23776;51.592;7.180;2022-12-05T15:17:06;35.30;;;17.08;;
37955;SDS011;23776;51.592;7.180;2022-12-05T15:19:47;37.67;;;17.67;;
37955;SDS011;23776;51.592;7.180;2022-12-05T15:22:20;33.78;;;17.05;;
37955;SDS011;23776;51.592;7.180;2022-12-05T15:24:49;36.53;;;18.50;;
37955;SDS011;23776;51.592;7.180;2022-12-05T15:27:14;33.20;;;17.02;;
37955;SDS011;23776;51.592;7.180;2022-12-05T15:29:40;33.95;;;16.77;;
37955;SDS011;23776;51.592;7.180;2022-12-05T15:34:55;30.48;;;16.52;;
37955;SDS011;23776;51.592;7.180;2022-12-05T15:37:23;34.72;;;17.83;;
37955;SDS011;23776;51.592;7.180;2022-12-05T15:47:37;36.75;;;17.90;;
37955;SDS011;23776;51.592;7.180;2022-12-05T15:50:04;39.88;;;19.67;;
37955;SDS011;23776;51.592;7.180;2022-12-05T15:52:38;34.55;;;17.85;;
37955;SDS011;23776;51.592;7.180;2022-12-05T15:55:11;37.78;;;19.60;;
37955;SDS011;23776;51.592;7.180;2022-12-05T15:57:46;47.15;;;20.55;;
37955;SDS011;23776;51.592;7.180;2022-12-05T16:00:18;37.53;;;19.48;;
37955;SDS011;23776;51.592;7.180;2022-12-05T16:07:48;42.00;;;20.42;;
37955;SDS011;23776;51.592;7.180;2022-12-05T16:10:15;44.63;;;21.60;;
37955;SDS011;23776;51.592;7.180;2022-12-05T16:12:45;41.65;;;20.25;;
37955;SDS011;23776;51.592;7.180;2022-12-05T16:15:13;36.75;;;18.60;;
37955;SDS011;23776;51.592;7.180;2022-12-05T16:17:45;39.40;;;19.40;;
37955;SDS011;23776;51.592;7.180;2022-12-05T16:22:48;42.22;;;19.88;;
37955;SDS011;23776;51.592;7.180;2022-12-05T16:25:17;42.75;;;20.40;;
37955;SDS011;23776;51.592;7.180;2022-12-05T16:27:58;39.13;;;19.45;;
37955;SDS011;23776;51.592;7.180;2022-12-05T16:30:35;38.63;;;19.25;;
37955;SDS011;23776;51.592;7.180;2022-12-05T16:33:03;39.75;;;19.60;;
37955;SDS011;23776;51.592;7.180;2022-12-05T16:40:49;34.97;;;18.20;;
37955;SDS011;23776;51.592;7.180;2022-12-05T16:48:37;36.60;;;17.33;;
37955;SDS011;23776;51.592;7.180;2022-12-05T16:53:50;34.25;;;16.63;;
37955;SDS011;23776;51.592;7.180;2022-12-05T16:56:19;39.08;;;17.52;;
37955;SDS011;23776;51.592;7.180;2022-12-05T16:58:46;38.58;;;18.20;;
37955;SDS011;23776;51.592;7.180;2022-12-05T17:01:14;38.88;;;18.02;;
37955;SDS011;23776;51.592;7.180;2022-12-05T17:03:42;42.47;;;19.65;;
37955;SDS011;23776;51.592;7.180;2022-12-05T17:06:09;42.17;;;19.30;;
37955;SDS011;23776;51.592;7.180;2022-12-05T17:08:34;45.47;;;21.10;;
37955;SDS011;23776;51.592;7.180;2022-12-05T17:11:00;47.97;;;21.75;;
37955;SDS011;23776;51.592;7.180;2022-12-05T17:13:27;46.30;;;22.15;;
37955;SDS011;23776;51.592;7.180;2022-12-05T17:15:55;47.47;;;20.88;;
37955;SDS011;23776;51.592;7.180;2022-12-05T17:18:20;51.97;;;21.90;;
37955;SDS011;23776;51.592;7.180;2022-12-05T17:20:54;52.03;;;23.55;;
37955;SDS011;23776;51.592;7.180;2022-12-05T17:23:21;53.20;;;23.48;;
37955;SDS011;23776;51.592;7.180;2022-12-05T17:25:51;60.97;;;25.60;;
37955;SDS011;23776;51.592;7.180;2022-12-05T17:28:21;61.70;;;26.20;;
37955;SDS011;23776;51.592;7.180;2022-12-05T17:30:47;68.57;;;26.23;;
37955;SDS011;23776;51.592;7.180;2022-12-05T17:33:14;62.80;;;27.75;;